Time;durP1;ratioP1;P1;durP2;ratioP2;P2;SDS_P1;SDS_P2;PMS_P1;PMS_P2;Temp;Humidity;BMP_temperature;BMP_pressure;BME280_temperature;BME280_humidity;BME280_pressure;Samples;Min_cycle;Max_cycle;Signal;HPM_P1;HPM_P2
2023/04/07 00:01:59;;;;;;;24.75;16.75;;;;;;;5.73;88.98;100174.77;1682723;82;21235;-84
2023/04/07 00:05:04;;;;;;;24.25;16.80;;;;;;;5.60;88.98;100181.41;1696184;84;21287;-84
2023/04/07 00:08:10;;;;;;;25.37;17.85;;;;;;;5.65;88.79;100170.11;1685361;82;21330;-84
2023/04/07 00:11:15;;;;;;;22.85;15.55;;;;;;;5.47;89.13;100171.38;1700486;82;21774;-84
2023/04/07 00:14:21;;;;;;;22.73;17.50;;;;;;;5.51;88.48;100176.86;1660615;84;21247;-84
2023/04/07 00:17:27;;;;;;;22.13;16.82;;;;;;;5.47;88.41;100169.16;1700238;84;21212;-84
2023/04/07 00:20:33;;;;;;;26.48;17.17;;;;;;;5.41;88.85;100167.90;1697335;84;21232;-84
2023/04/07 00:23:39;;;;;;;24.95;18.82;;;;;;;5.21;88.99;100171.12;1664677;84;21328;-84
2023/04/07 00:26:45;;;;;;;17.20;14.47;;;;;;;5.24;89.13;100168.64;1670822;84;21234;-84
2023/04/07 00:29:50;;;;;;;20.12;13.35;;;;;;;5.12;89.31;100177.41;1674661;83;21210;-84
2023/04/07 00:32:57;;;;;;;22.45;10.82;;;;;;;4.81;90.40;100183.02;1669075;83;21772;-84
2023/04/07 00:36:05;;;;;;;22.52;12.25;;;;;;;4.92;90.24;100179.30;1673259;83;21198;-84
2023/04/07 00:39:11;;;;;;;22.22;14.70;;;;;;;4.99;89.34;100174.17;1675755;82;21234;-84
2023/04/07 00:42:17;;;;;;;23.35;14.47;;;;;;;4.87;89.40;100171.59;1700963;84;21236;-84
2023/04/07 00:45:23;;;;;;;19.05;14.20;;;;;;;4.83;89.61;100172.87;1686767;83;21207;-84
2023/04/07 00:48:29;;;;;;;20.65;13.22;;;;;;;4.64;90.13;100172.87;1698707;83;21217;-85
2023/04/07 00:51:36;;;;;;;20.80;13.68;;;;;;;4.64;90.28;100173.38;1686172;83;21241;-84
2023/04/07 00:54:41;;;;;;;29.90;16.00;;;;;;;4.69;89.73;100176.51;1687125;83;21231;-84
2023/04/07 00:57:46;;;;;;;25.85;17.52;;;;;;;4.62;89.94;100174.88;1701953;83;21231;-84
2023/04/07 01:01:09;;;;;;;22.50;16.42;;;;;;;4.71;89.80;100173.18;1704573;83;21231;-84
2023/04/07 01:04:24;;;;;;;22.93;15.53;;;;;;;4.59;90.00;100168.38;1664092;83;21325;-84
2023/04/07 01:07:46;;;;;;;21.57;15.90;;;;;;;4.53;90.25;100173.02;1659380;84;21209;-84
2023/04/07 01:11:08;;;;;;;18.52;15.13;;;;;;;4.34;90.99;100166.57;1663691;84;21248;-84
2023/04/07 01:14:14;;;;;;;18.90;15.58;;;;;;;4.33;91.22;100177.05;1663316;85;21272;-84
2023/04/07 01:17:24;;;;;;;21.70;15.63;;;;;;;4.24;91.47;100176.53;1659697;84;21223;-83
2023/04/07 01:20:31;;;;;;;15.63;11.75;;;;;;;4.27;91.56;100180.80;1659850;83;22169;-85
2023/04/07 01:24:21;;;;;;;15.93;13.43;;;;;;;4.41;90.92;100179.55;1667518;83;21856;-85
2023/04/07 01:28:09;;;;;;;19.75;14.03;;;;;;;4.30;91.20;100182.73;1661403;84;21232;-85
2023/04/07 01:33:41;;;;;;;17.67;13.85;;;;;;;4.22;92.67;100181.21;1710259;83;21269;-85
2023/04/07 01:39:13;;;;;;;17.17;12.45;;;;;;;4.32;93.11;100179.87;1710981;83;21293;-85
2023/04/07 01:42:18;;;;;;;16.93;13.58;;;;;;;4.40;93.05;100188.67;1705219;81;21478;-85
2023/04/07 01:47:50;;;;;;;15.98;11.40;;;;;;;4.44;92.77;100184.69;1709130;83;21288;-85
2023/04/07 01:53:23;;;;;;;12.78;9.70;;;;;;;4.46;92.75;100177.27;1709536;83;21258;-85
2023/04/07 01:58:59;;;;;;;18.52;12.60;;;;;;;4.61;92.81;100175.85;1709210;83;21250;-85
2023/04/07 02:02:05;;;;;;;16.07;11.38;;;;;;;4.65;92.65;100178.64;1707928;82;21239;-85
2023/04/07 02:05:14;;;;;;;15.90;12.37;;;;;;;4.67;92.53;100178.02;1667639;84;21247;-85
2023/04/07 02:08:23;;;;;;;14.58;11.03;;;;;;;4.49;93.02;100179.70;1669368;83;21209;-85
2023/04/07 02:11:31;;;;;;;14.15;10.58;;;;;;;4.51;93.06;100175.84;1653411;83;21240;-85
2023/04/07 02:14:37;;;;;;;17.52;12.03;;;;;;;4.49;93.31;100171.58;1651307;83;21272;-84
2023/04/07 02:17:48;;;;;;;17.98;12.78;;;;;;;4.53;93.32;100167.59;1659800;85;21258;-84
2023/04/07 02:23:21;;;;;;;17.48;11.80;;;;;;;4.54;93.85;100159.32;1662125;83;21268;-84
2023/04/07 02:28:53;;;;;;;16.67;11.80;;;;;;;4.63;93.69;100161.69;1695471;83;21230;-84
2023/04/07 02:34:26;;;;;;;14.20;11.45;;;;;;;4.72;93.33;100164.90;1707468;84;21211;-84
2023/04/07 02:37:31;;;;;;;15.58;12.15;;;;;;;4.71;93.48;100168.61;1676322;84;21795;-84
2023/04/07 02:40:29;;;;;;;18.07;12.43;;;;;;;4.67;93.88;100164.47;1651723;84;21243;-84
2023/04/07 02:43:36;;;;;;;17.87;13.28;;;;;;;4.67;93.81;100161.77;1696141;83;21251;-84
2023/04/07 02:46:41;;;;;;;18.52;13.93;;;;;;;4.68;93.92;100162.61;1703583;83;21227;-84
2023/04/07 02:49:46;;;;;;;22.70;14.53;;;;;;;4.67;93.73;100159.05;1700833;83;21220;-84
2023/04/07 02:52:53;;;;;;;23.80;14.68;;;;;;;4.78;93.59;100160.75;1682522;82;21268;-84
2023/04/07 02:55:59;;;;;;;20.48;13.25;;;;;;;4.96;92.92;100159.55;1701976;83;21267;-84
2023/04/07 02:59:07;;;;;;;19.27;13.78;;;;;;;5.07;92.07;100149.88;1697946;84;21232;-84
2023/04/07 03:02:13;;;;;;;22.17;14.65;;;;;;;4.91;92.30;100157.27;1666892;84;21238;-84
2023/04/07 03:05:20;;;;;;;18.23;13.38;;;;;;;4.85;92.52;100153.78;1702456;83;21229;-85
2023/04/07 03:08:27;;;;;;;22.60;14.58;;;;;;;4.93;92.03;100157.11;1696313;84;21212;-84
2023/04/07 03:11:34;;;;;;;23.10;14.18;;;;;;;5.19;90.71;100160.94;1660869;84;21236;-85
2023/04/07 03:14:40;;;;;;;26.27;15.03;;;;;;;4.92;91.45;100168.95;1691394;83;22323;-85
2023/04/07 03:17:48;;;;;;;18.00;13.60;;;;;;;5.16;90.89;100161.72;1657022;84;21236;-85
2023/04/07 03:20:55;;;;;;;24.52;15.18;;;;;;;5.23;90.06;100162.87;1696674;82;21259;-84
2023/04/07 03:24:01;;;;;;;22.60;15.15;;;;;;;5.27;89.67;100166.50;1687693;83;21221;-84
2023/04/07 03:27:07;;;;;;;26.23;17.80;;;;;;;5.38;89.05;100160.05;1705145;83;21264;-84
2023/04/07 03:30:14;;;;;;;25.80;16.57;;;;;;;5.29;89.28;100167.70;1658564;84;21763;-84
2023/04/07 03:33:20;;;;;;;22.62;13.68;;;;;;;5.21;89.34;100172.98;1658848;84;21246;-84
2023/04/07 03:36:27;;;;;;;24.40;15.68;;;;;;;5.31;89.38;100176.02;1671662;83;21256;-84
2023/04/07 03:39:36;;;;;;;28.38;16.55;;;;;;;5.29;89.52;100172.62;1675331;83;21238;-84
2023/04/07 03:42:52;;;;;;;26.33;15.90;;;;;;;5.45;88.97;100183.36;1657381;84;21316;-84
2023/04/07 03:45:59;;;;;;;21.80;15.38;;;;;;;5.20;89.73;100178.91;1661664;83;21851;-84
2023/04/07 03:49:06;;;;;;;22.00;15.28;;;;;;;5.06;90.93;100184.78;1677510;84;21252;-84
2023/04/07 03:52:13;;;;;;;23.85;15.70;;;;;;;5.33;90.30;100182.18;1660702;84;21248;-84
2023/04/07 03:55:20;;;;;;;25.88;15.90;;;;;;;5.44;89.81;100186.57;1692294;82;21233;-85
2023/04/07 03:58:28;;;;;;;22.15;15.72;;;;;;;5.18;90.95;100190.92;1685543;82;21232;-85
2023/04/07 04:01:36;;;;;;;27.30;16.17;;;;;;;5.47;90.39;100190.86;1707288;83;21251;-85
2023/04/07 04:04:43;;;;;;;30.37;15.95;;;;;;;5.36;90.61;100191.39;1711005;80;21279;-85
2023/04/07 04:07:51;;;;;;;30.57;17.30;;;;;;;5.44;90.66;100189.79;1703724;83;21225;-85
2023/04/07 04:10:58;;;;;;;21.87;15.38;;;;;;;5.46;90.56;100185.94;1667645;83;21369;-85
2023/04/07 04:14:07;;;;;;;26.37;15.55;;;;;;;5.49;90.90;100190.20;1665032;83;21776;-85
2023/04/07 04:17:15;;;;;;;25.48;16.52;;;;;;;5.53;91.05;100192.48;1653428;84;21227;-84
2023/04/07 04:20:21;;;;;;;24.32;14.65;;;;;;;5.56;91.25;100192.20;1658631;84;21283;-84
2023/04/07 04:23:29;;;;;;;29.95;15.65;;;;;;;5.64;91.30;100198.22;1651043;84;21212;-84
2023/04/07 04:26:35;;;;;;;25.15;15.50;;;;;;;5.90;90.90;100197.93;1684388;83;21247;-84
2023/04/07 04:29:42;;;;;;;25.65;16.02;;;;;;;5.81;91.04;100200.68;1690278;83;21362;-84
2023/04/07 04:32:51;;;;;;;29.65;15.40;;;;;;;6.10;90.51;100206.02;1701102;84;21196;-84
2023/04/07 04:36:08;;;;;;;23.10;14.40;;;;;;;6.09;90.15;100212.46;1701304;83;21220;-84
2023/04/07 04:39:17;;;;;;;25.23;14.18;;;;;;;6.04;90.42;100210.70;1703310;84;21244;-84
2023/04/07 04:42:22;;;;;;;23.12;13.95;;;;;;;6.02;90.53;100216.77;1696258;84;21215;-84
2023/04/07 04:45:28;;;;;;;18.62;12.40;;;;;;;6.06;91.05;100214.11;1704421;83;21213;-84
2023/04/07 04:48:35;;;;;;;21.73;11.57;;;;;;;6.09;91.16;100210.59;1698962;83;21347;-84
2023/04/07 04:51:41;;;;;;;22.87;11.45;;;;;;;6.35;90.22;100201.73;1652433;84;21255;-84
2023/04/07 04:54:47;;;;;;;18.35;10.50;;;;;;;6.36;89.61;100204.83;1657554;84;21242;-84
2023/04/07 04:57:53;;;;;;;16.40;9.68;;;;;;;6.36;89.58;100208.39;1659092;84;21241;-84
2023/04/07 05:01:01;;;;;;;21.93;11.08;;;;;;;6.77;88.30;100214.27;1666353;84;21126;-84
2023/04/07 05:04:09;;;;;;;15.85;9.80;;;;;;;6.79;88.12;100206.82;1684135;83;21308;-84
2023/04/07 05:07:17;;;;;;;14.63;10.00;;;;;;;6.64;88.42;100205.66;1659403;84;21228;-84
2023/04/07 05:10:25;;;;;;;18.65;10.23;;;;;;;6.69;88.05;100211.48;1659256;84;21232;-85
2023/04/07 05:13:33;;;;;;;13.85;9.58;;;;;;;6.83;87.36;100205.51;1708580;82;21235;-84
2023/04/07 05:16:38;;;;;;;12.93;8.68;;;;;;;6.85;87.16;100212.99;1687775;82;21228;-85
2023/04/07 05:19:46;;;;;;;13.00;9.10;;;;;;;6.99;86.68;100215.67;1675945;84;21255;-85
2023/04/07 05:22:54;;;;;;;11.20;7.53;;;;;;;7.03;86.12;100215.72;1677780;82;21235;-84
2023/04/07 05:26:00;;;;;;;11.00;8.10;;;;;;;7.08;85.61;100214.74;1670359;83;21280;-85
2023/04/07 05:29:04;;;;;;;11.35;7.85;;;;;;;7.18;84.28;100222.82;1635594;84;21246;-84
2023/04/07 05:32:12;;;;;;;13.15;7.85;;;;;;;7.06;84.37;100222.73;1701258;83;21235;-84
2023/04/07 05:35:19;;;;;;;11.70;7.80;;;;;;;7.01;84.65;100223.67;1702420;83;21223;-85
2023/04/07 05:38:24;;;;;;;11.03;7.78;;;;;;;6.98;84.53;100226.22;1649802;84;21217;-85
2023/04/07 05:41:32;;;;;;;11.73;7.47;;;;;;;7.05;84.80;100233.23;1647830;84;21226;-84
2023/04/07 05:44:39;;;;;;;11.33;6.95;;;;;;;7.01;84.76;100232.71;1672226;83;21244;-84
2023/04/07 05:47:51;;;;;;;9.60;6.20;;;;;;;6.88;84.66;100234.45;1659524;83;21220;-84
2023/04/07 05:50:57;;;;;;;10.10;6.40;;;;;;;6.90;84.67;100234.28;1673429;83;21205;-85
2023/04/07 05:54:05;;;;;;;8.70;6.25;;;;;;;7.16;83.31;100234.38;1660010;83;21479;-85
2023/04/07 05:57:14;;;;;;;11.35;6.75;;;;;;;6.95;84.02;100236.03;1695809;83;21215;-85
2023/04/07 06:00:21;;;;;;;10.43;6.62;;;;;;;7.03;84.22;100232.55;1674046;83;22186;-85
2023/04/07 06:03:30;;;;;;;8.78;6.95;;;;;;;7.04;83.76;100238.33;1680826;83;21184;-85
2023/04/07 06:06:41;;;;;;;10.20;6.75;;;;;;;7.02;83.57;100237.64;1666922;82;21267;-85
2023/04/07 06:09:59;;;;;;;8.53;6.30;;;;;;;7.04;83.54;100239.69;1656440;83;21244;-85
2023/04/07 06:13:06;;;;;;;9.93;7.62;;;;;;;7.07;83.56;100246.19;1654094;84;21281;-85
2023/04/07 06:16:14;;;;;;;9.38;6.20;;;;;;;7.15;83.77;100230.80;1690762;82;21247;-85
2023/04/07 06:19:22;;;;;;;9.78;6.35;;;;;;;7.20;83.52;100233.05;1663491;83;21248;-85
2023/04/07 06:22:27;;;;;;;11.97;6.47;;;;;;;7.34;83.18;100235.22;1698552;82;21469;-84
2023/04/07 06:25:33;;;;;;;12.28;8.23;;;;;;;7.41;82.63;100240.87;1652760;84;21224;-86
2023/04/07 06:28:39;;;;;;;9.88;7.47;;;;;;;7.54;82.53;100238.60;1669766;83;21394;-83
2023/04/07 06:31:46;;;;;;;12.37;5.80;;;;;;;7.59;81.80;100241.70;1674218;83;21251;-85
2023/04/07 06:34:51;;;;;;;8.05;6.15;;;;;;;7.58;80.93;100244.08;1675502;84;21314;-84
2023/04/07 06:37:57;;;;;;;6.78;5.50;;;;;;;7.64;80.58;100246.67;1659560;83;21639;-84
2023/04/07 06:41:02;;;;;;;7.45;5.10;;;;;;;7.68;80.21;100252.15;1676774;84;21178;-84
2023/04/07 06:44:08;;;;;;;8.13;5.53;;;;;;;7.84;79.16;100256.33;1645097;84;21221;-84
2023/04/07 06:47:14;;;;;;;7.95;5.35;;;;;;;7.78;78.87;100251.53;1657229;83;21280;-85
2023/04/07 06:50:21;;;;;;;9.55;5.90;;;;;;;7.69;79.86;100249.25;1656086;84;21255;-84
2023/04/07 06:53:27;;;;;;;9.55;6.00;;;;;;;7.66;79.73;100252.80;1653962;84;21603;-84
2023/04/07 06:56:37;;;;;;;9.45;6.47;;;;;;;7.61;79.95;100252.42;1650344;83;21377;-87
2023/04/07 06:59:42;;;;;;;12.35;5.65;;;;;;;7.65;79.43;100256.03;1654750;84;21255;-86
2023/04/07 07:02:52;;;;;;;10.53;5.95;;;;;;;7.63;79.76;100257.22;1672437;83;21213;-87
2023/04/07 07:05:58;;;;;;;10.57;7.23;;;;;;;7.64;79.03;100260.28;1653936;83;21356;-86
2023/04/07 07:09:11;;;;;;;18.65;6.28;;;;;;;7.60;79.45;100260.24;1656329;83;21257;-86
2023/04/07 07:14:52;;;;;;;11.83;7.12;;;;;;;7.62;80.36;100263.65;1655286;83;20269;-86
2023/04/07 07:20:29;;;;;;;14.58;7.40;;;;;;;7.67;80.98;100267.63;1658800;84;21750;-86
2023/04/07 07:26:01;;;;;;;8.78;5.72;;;;;;;7.54;81.80;100267.69;1695421;82;22107;-87
2023/04/07 07:29:06;;;;;;;11.03;6.20;;;;;;;7.54;82.24;100270.41;1650551;83;21331;-87
2023/04/07 07:34:37;;;;;;;11.22;6.33;;;;;;;7.46;83.04;100270.34;1701950;83;21250;-86
2023/04/07 07:37:43;;;;;;;14.07;6.40;;;;;;;7.50;83.51;100274.45;1647391;82;21332;-86
2023/04/07 07:45:43;;;;;;;14.73;8.10;;;;;;;7.73;82.56;100280.26;1668460;84;21314;-87
2023/04/07 07:48:50;;;;;;;16.05;8.20;;;;;;;7.59;82.74;100278.45;1653323;83;21221;-86
2023/04/07 07:51:56;;;;;;;12.82;7.55;;;;;;;7.53;83.21;100268.67;1656649;84;21256;-86
2023/04/07 07:57:31;;;;;;;12.10;6.97;;;;;;;7.64;83.64;100273.38;1643032;84;21209;-86
2023/04/07 08:00:38;;;;;;;14.58;7.25;;;;;;;7.68;84.10;100271.20;1669471;83;21252;-86
2023/04/07 08:03:44;;;;;;;17.20;9.45;;;;;;;7.54;85.16;100267.69;1656525;84;21309;-86
2023/04/07 08:09:17;;;;;;;10.48;5.97;;;;;;;7.49;86.99;100269.52;1659954;83;21598;-87
2023/04/07 08:12:23;;;;;;;12.58;6.70;;;;;;;7.57;87.15;100268.72;1647192;84;21230;-87
2023/04/07 08:17:54;;;;;;;11.75;7.00;;;;;;;7.65;85.93;100266.91;1675793;83;21868;-86
2023/04/07 08:21:00;;;;;;;18.15;10.78;;;;;;;7.74;85.88;100260.18;1655676;83;21381;-86
2023/04/07 08:24:08;;;;;;;11.30;7.08;;;;;;;7.74;85.94;100265.11;1654599;83;21321;-87
2023/04/07 08:27:17;;;;;;;16.12;6.60;;;;;;;7.79;85.07;100258.68;1650265;83;21203;-87
2023/04/07 08:30:23;;;;;;;12.58;7.40;;;;;;;7.90;84.77;100259.80;1684742;83;21223;-86
2023/04/07 08:33:29;;;;;;;14.38;7.92;;;;;;;7.83;85.60;100262.80;1658537;84;21843;-87
2023/04/07 08:36:34;;;;;;;13.95;8.55;;;;;;;7.83;86.07;100261.95;1695843;82;21240;-87
2023/04/07 08:39:42;;;;;;;14.33;8.38;;;;;;;7.90;85.51;100257.08;1702818;82;21818;-87
2023/04/07 08:42:49;;;;;;;11.45;7.62;;;;;;;7.93;85.45;100253.16;1686222;83;21208;-87
2023/04/07 08:45:55;;;;;;;20.02;9.73;;;;;;;8.06;85.88;100247.28;1649883;83;21226;-87
2023/04/07 08:49:03;;;;;;;18.32;9.43;;;;;;;8.21;85.20;100253.83;1677448;83;21250;-87
2023/04/07 08:52:09;;;;;;;18.30;9.68;;;;;;;8.13;85.40;100256.50;1677791;83;21858;-87
2023/04/07 08:55:15;;;;;;;13.05;7.78;;;;;;;8.16;85.58;100249.38;1694002;82;21259;-87
2023/04/07 08:58:21;;;;;;;15.03;8.15;;;;;;;7.98;85.89;100250.80;1654638;84;21558;-87
2023/04/07 09:01:26;;;;;;;16.05;8.83;;;;;;;8.00;85.95;100249.27;1695669;83;21188;-87
2023/04/07 09:04:33;;;;;;;14.45;7.92;;;;;;;7.90;86.27;100254.34;1695146;83;21159;-87
2023/04/07 09:07:45;;;;;;;15.28;8.85;;;;;;;7.84;86.99;100255.48;1660236;83;21607;-87
2023/04/07 09:10:51;;;;;;;14.43;9.03;;;;;;;7.86;87.48;100252.11;1648484;84;21862;-86
2023/04/07 09:14:00;;;;;;;17.15;8.90;;;;;;;7.92;87.39;100260.48;1662826;85;21240;-86
2023/04/07 09:17:06;;;;;;;14.55;8.53;;;;;;;7.92;88.00;100259.11;1667779;83;22131;-87
2023/04/07 09:20:13;;;;;;;21.02;11.15;;;;;;;7.94;88.14;100254.86;1692064;84;21211;-87
2023/04/07 09:23:28;;;;;;;16.95;9.95;;;;;;;7.77;89.48;100260.72;1690993;84;21264;-86
2023/04/07 09:26:35;;;;;;;21.30;10.40;;;;;;;7.83;89.63;100267.39;1672301;83;21268;-86
2023/04/07 09:29:42;;;;;;;18.32;10.55;;;;;;;7.76;90.59;100265.80;1677183;84;21401;-87
2023/04/07 09:32:47;;;;;;;18.25;10.23;;;;;;;7.73;90.84;100263.92;1670869;83;22182;-87
2023/04/07 09:35:59;;;;;;;21.48;10.50;;;;;;;7.76;90.89;100262.22;1680103;83;21259;-87
2023/04/07 09:39:06;;;;;;;16.20;9.53;;;;;;;7.78;91.40;100249.32;1677421;82;21279;-87
2023/04/07 09:42:14;;;;;;;20.10;10.15;;;;;;;7.81;91.73;100255.31;1648062;83;21187;-87
2023/04/07 09:45:19;;;;;;;14.50;8.45;;;;;;;7.84;92.10;100255.48;1665683;83;21255;-87
2023/04/07 09:48:31;;;;;;;17.17;9.55;;;;;;;7.88;91.65;100254.15;1678674;84;21220;-87
2023/04/07 09:51:36;;;;;;;18.00;9.68;;;;;;;7.85;92.23;100274.37;1676414;83;21168;-86
2023/04/07 09:54:48;;;;;;;17.12;9.18;;;;;;;7.88;91.92;100256.36;1653787;84;21267;-86
2023/04/07 09:57:58;;;;;;;18.37;10.28;;;;;;;7.94;92.27;100261.16;1655651;84;21217;-87
2023/04/07 10:01:01;;;;;;;15.72;9.38;;;;;;;8.01;91.70;100260.03;1658069;85;21739;-87
2023/04/07 10:04:07;;;;;;;15.05;10.03;;;;;;;8.06;91.33;100250.01;1650133;83;21276;-87
2023/04/07 10:07:13;;;;;;;18.62;9.08;;;;;;;7.99;91.68;100263.91;1646153;84;21236;-88
2023/04/07 10:10:20;;;;;;;17.65;10.60;;;;;;;7.98;92.10;100264.94;1661462;83;21759;-88
2023/04/07 10:13:27;;;;;;;18.85;10.72;;;;;;;7.94;93.16;100259.80;1641315;84;21323;-87
2023/04/07 10:16:33;;;;;;;20.10;11.48;;;;;;;7.99;93.87;100259.83;1648074;84;21227;-88
2023/04/07 10:19:40;;;;;;;19.05;10.65;;;;;;;7.85;95.13;100263.98;1651573;84;21269;-88
2023/04/07 10:22:49;;;;;;;17.95;9.93;;;;;;;7.87;95.14;100259.26;1656898;84;21524;-88
2023/04/07 10:25:54;;;;;;;19.05;10.50;;;;;;;7.85;95.74;100257.18;1659786;82;21247;-87
2023/04/07 10:29:05;;;;;;;20.97;11.05;;;;;;;7.94;95.83;100261.16;1658133;83;21818;-87
2023/04/07 10:32:15;;;;;;;26.33;11.33;;;;;;;7.99;96.14;100258.46;1650769;84;21319;-87
2023/04/07 10:35:22;;;;;;;20.90;11.22;;;;;;;8.19;95.90;100258.60;1660859;83;21314;-87
2023/04/07 10:38:28;;;;;;;21.27;11.05;;;;;;;8.12;96.87;100256.16;1691791;82;21260;-87
2023/04/07 10:41:43;;;;;;;19.40;11.83;;;;;;;8.23;96.89;100261.32;1663376;84;21279;-87
2023/04/07 10:44:52;;;;;;;27.35;12.53;;;;;;;8.19;97.56;100260.81;1654539;84;21248;-87
2023/04/07 10:48:16;;;;;;;21.87;12.75;;;;;;;8.10;98.76;100260.94;1682947;82;21244;-86
2023/04/07 10:54:30;;;;;;;22.22;12.37;;;;;;;8.33;99.59;100268.89;1667292;84;21295;-86
2023/04/07 10:57:23;;;;;;;20.45;11.97;;;;;;;8.53;98.77;100264.06;1641045;84;21259;-86
2023/04/07 11:03:00;;;;;;;20.85;12.60;;;;;;;8.48;99.67;100262.86;1668945;84;21233;-87
2023/04/07 11:08:46;;;;;;;23.73;13.13;;;;;;;8.70;99.56;100264.96;1667550;83;21341;-87
2023/04/07 11:11:53;;;;;;;26.82;14.75;;;;;;;8.70;99.45;100258.14;1659532;83;21236;-87
2023/04/07 11:15:02;;;;;;;23.62;13.25;;;;;;;8.65;100.00;100255.91;1663208;82;21248;-86
2023/04/07 11:18:15;;;;;;;24.07;13.88;;;;;;;8.69;100.00;100249.11;1673858;83;21357;-86
2023/04/07 11:21:25;;;;;;;26.68;15.20;;;;;;;8.74;100.00;100245.04;1679804;83;21902;-86
2023/04/07 11:24:43;;;;;;;27.23;15.87;;;;;;;8.79;100.00;100238.58;1679796;83;21230;-86
2023/04/07 11:27:51;;;;;;;24.75;15.13;;;;;;;8.82;100.00;100239.61;1658581;83;22382;-87
2023/04/07 11:30:58;;;;;;;21.85;14.78;;;;;;;8.87;100.00;100239.97;1704213;82;21293;-87
2023/04/07 11:34:10;;;;;;;27.87;14.47;;;;;;;8.91;100.00;100238.10;1695237;83;21249;-86
2023/04/07 11:37:32;;;;;;;28.27;14.65;;;;;;;9.03;100.00;100241.86;1698501;83;21255;-86
2023/04/07 11:40:42;;;;;;;28.27;16.00;;;;;;;9.03;100.00;100229.58;1698041;83;21238;-86
2023/04/07 11:43:49;;;;;;;29.25;15.58;;;;;;;9.16;100.00;100228.58;1682185;83;21265;-86
2023/04/07 11:47:05;;;;;;;23.12;14.65;;;;;;;9.32;100.00;100224.52;1684496;83;21224;-87
2023/04/07 11:50:10;;;;;;;24.30;15.60;;;;;;;9.35;100.00;100222.78;1694150;82;21188;-86
2023/04/07 11:53:15;;;;;;;21.68;14.20;;;;;;;9.48;100.00;100230.48;1693517;83;21244;-86
2023/04/07 11:56:22;;;;;;;20.77;13.22;;;;;;;9.54;100.00;100231.66;1689168;82;21232;-86
2023/04/07 11:59:32;;;;;;;21.85;14.63;;;;;;;9.45;100.00;100237.11;1700671;82;21550;-86
2023/04/07 12:02:39;;;;;;;27.65;14.10;;;;;;;9.52;100.00;100228.27;1664131;84;21216;-87
2023/04/07 12:05:53;;;;;;;19.15;13.10;;;;;;;9.58;100.00;100224.84;1661206;83;21328;-87
2023/04/07 12:08:59;;;;;;;21.27;12.93;;;;;;;9.61;100.00;100229.96;1654362;83;21862;-86
2023/04/07 12:12:09;;;;;;;20.65;13.98;;;;;;;9.62;100.00;100224.32;1655161;83;21280;-86
2023/04/07 12:14:53;;;;;;;18.32;12.73;;;;;;;9.72;100.00;100222.25;1703223;82;21331;-86
2023/04/07 12:20:29;;;;;;;18.40;12.18;;;;;;;9.79;100.00;100214.75;1701224;83;21231;-86
2023/04/07 12:23:36;;;;;;;18.82;12.50;;;;;;;9.68;100.00;100212.70;1701180;82;21315;-86
2023/04/07 12:26:42;;;;;;;16.17;12.20;;;;;;;9.76;100.00;100214.58;1701248;82;21776;-87
2023/04/07 12:32:16;;;;;;;20.17;13.98;;;;;;;9.71;100.00;100204.69;1654612;84;21794;-86
2023/04/07 12:37:50;;;;;;;20.12;14.23;;;;;;;9.64;100.00;100206.39;1667302;83;21299;-86
2023/04/07 12:41:02;;;;;;;21.30;15.25;;;;;;;9.63;100.00;100195.12;1664824;82;21284;-86
2023/04/07 12:46:29;;;;;;;27.37;18.80;;;;;;;9.73;100.00;100184.86;1667291;83;21272;-86
2023/04/07 12:49:35;;;;;;;39.03;23.02;;;;;;;9.84;100.00;100189.98;1663446;82;21187;-87
2023/04/07 12:52:42;;;;;;;23.65;16.20;;;;;;;9.95;100.00;100186.02;1661184;83;21810;-86
2023/04/07 12:55:48;;;;;;;26.30;17.00;;;;;;;9.97;100.00;100175.27;1691430;82;21267;-86
2023/04/07 12:58:55;;;;;;;42.73;24.67;;;;;;;10.04;100.00;100173.19;1702924;81;21699;-86
2023/04/07 13:02:02;;;;;;;23.83;15.35;;;;;;;10.11;100.00;100175.02;1705901;82;21813;-86
2023/04/07 13:05:08;;;;;;;37.60;16.80;;;;;;;10.26;100.00;100174.30;1676326;84;21795;-86
2023/04/07 13:08:15;;;;;;;23.15;15.08;;;;;;;10.35;100.00;100168.66;1702130;82;21306;-87
2023/04/07 13:13:47;;;;;;;21.45;14.53;;;;;;;10.46;100.00;100166.88;1657302;83;21345;-86
2023/04/07 13:16:57;;;;;;;20.75;13.78;;;;;;;10.59;100.00;100175.02;1655414;83;21271;-87
2023/04/07 13:20:03;;;;;;;19.20;13.98;;;;;;;10.73;100.00;100175.63;1656182;83;21247;-86
2023/04/07 13:25:38;;;;;;;20.77;14.03;;;;;;;10.94;100.00;100173.06;1676880;85;21264;-86
2023/04/07 13:28:44;;;;;;;25.32;14.95;;;;;;;11.08;100.00;100172.80;1658475;84;21261;-86
2023/04/07 13:37:12;;;;;;;22.35;13.90;;;;;;;11.15;99.44;100173.78;1676049;85;20247;-86
2023/04/07 13:40:18;;;;;;;20.75;12.43;;;;;;;11.09;99.49;100178.59;1650847;85;21270;-86
2023/04/07 13:43:26;;;;;;;20.27;13.72;;;;;;;11.04;99.50;100185.14;1655606;84;21239;-86
2023/04/07 13:51:29;;;;;;;25.02;16.55;;;;;;;10.98;100.00;100179.87;1664099;85;21299;-87
2023/04/07 13:54:34;;;;;;;23.67;15.98;;;;;;;10.96;100.00;100186.06;1674528;82;21250;-87
2023/04/07 14:00:07;;;;;;;21.02;13.68;;;;;;;10.96;100.00;100186.06;1693289;83;21207;-86
2023/04/07 14:05:39;;;;;;;23.85;14.87;;;;;;;10.84;100.00;100183.41;1677092;84;21258;-87
2023/04/07 14:11:12;;;;;;;24.63;14.35;;;;;;;10.84;100.00;100184.77;1682755;84;21906;-87
2023/04/07 14:14:18;;;;;;;22.27;13.20;;;;;;;10.83;100.00;100183.07;1685883;83;21231;-87
2023/04/07 14:19:50;;;;;;;26.45;13.35;;;;;;;10.82;100.00;100184.11;1699642;84;21282;-86
2023/04/07 14:22:56;;;;;;;20.57;13.13;;;;;;;10.85;100.00;100178.26;1693283;83;21851;-87
2023/04/07 14:28:28;;;;;;;24.02;14.87;;;;;;;10.88;100.00;100186.12;1675874;84;21799;-87
2023/04/07 14:34:00;;;;;;;25.90;16.07;;;;;;;10.94;100.00;100179.05;1698370;84;21262;-86
2023/04/07 14:37:07;;;;;;;22.67;15.90;;;;;;;10.94;100.00;100182.64;1684081;83;21284;-87
2023/04/07 14:42:38;;;;;;;31.75;18.23;;;;;;;10.96;100.00;100183.81;1688188;84;21299;-87
2023/04/07 14:48:11;;;;;;;27.75;16.05;;;;;;;11.02;100.00;100188.59;1682150;84;22584;-86
2023/04/07 14:53:52;;;;;;;22.45;14.13;;;;;;;11.03;100.00;100175.75;1680854;84;21251;-86
2023/04/07 14:59:19;;;;;;;24.02;14.87;;;;;;;11.06;100.00;100184.45;1679305;83;21258;-86
2023/04/07 15:07:23;;;;;;;23.77;15.08;;;;;;;11.07;100.00;100183.41;1684798;84;21244;-87
2023/04/07 15:10:29;;;;;;;22.25;13.75;;;;;;;11.05;100.00;100177.77;1680810;84;21549;-87
2023/04/07 15:13:35;;;;;;;22.55;14.68;;;;;;;11.03;100.00;100180.70;1681251;83;21276;-86
2023/04/07 15:16:41;;;;;;;26.27;13.35;;;;;;;11.05;100.00;100185.98;1692522;82;21240;-86
2023/04/07 15:19:47;;;;;;;25.45;15.70;;;;;;;10.99;100.00;100188.42;1684769;83;21244;-87
2023/04/07 15:22:53;;;;;;;21.17;14.63;;;;;;;11.00;100.00;100181.91;1685133;83;21252;-87
2023/04/07 15:25:59;;;;;;;23.60;13.95;;;;;;;10.97;100.00;100185.55;1684818;83;21236;-86
2023/04/07 15:29:05;;;;;;;28.40;15.15;;;;;;;10.86;100.00;100179.11;1688746;84;21239;-87
2023/04/07 15:32:10;;;;;;;24.87;14.28;;;;;;;10.78;100.00;100178.66;1689551;83;21269;-86
2023/04/07 15:35:16;;;;;;;19.17;13.20;;;;;;;10.80;100.00;100179.84;1692750;83;21311;-87
2023/04/07 15:38:22;;;;;;;26.17;15.53;;;;;;;10.89;100.00;100182.34;1687086;83;21299;-87
2023/04/07 15:41:28;;;;;;;22.25;14.80;;;;;;;10.80;100.00;100183.42;1686004;83;21263;-86
2023/04/07 15:44:38;;;;;;;28.10;15.30;;;;;;;10.78;100.00;100193.71;1681151;82;21220;-86
2023/04/07 15:47:41;;;;;;;23.27;14.30;;;;;;;10.77;100.00;100195.23;1681837;83;21233;-87
2023/04/07 15:50:47;;;;;;;25.00;15.78;;;;;;;10.80;100.00;100194.37;1689724;82;21224;-87
2023/04/07 15:53:52;;;;;;;24.00;15.38;;;;;;;10.64;100.00;100193.96;1673094;82;21262;-87
2023/04/07 15:56:58;;;;;;;25.92;14.83;;;;;;;10.73;100.00;100192.03;1667789;83;21198;-87
2023/04/07 16:00:04;;;;;;;26.10;16.42;;;;;;;10.64;100.00;100196.70;1658677;84;21783;-87
2023/04/07 16:03:11;;;;;;;23.42;14.65;;;;;;;10.71;100.00;100192.71;1688512;83;21220;-87
2023/04/07 16:06:17;;;;;;;22.37;14.25;;;;;;;10.81;100.00;100196.06;1684009;83;21299;-87